URMM

Mineralnyye Vody Airport

Mineralnyye Vody, Russian Federation
TAF URMM 191959Z 1921/2021 09005G12MPS 3100 BR OVC003 TX05/2011Z TN01/2002Z TEMPO 1921/2008 0300 FG OVC002 BECMG 2008/2009 9999 NSW BKN020CB TEMPO 2009/2015 3100 -SHRA BKN011 BKN020CB TEMPO 2015/2021 26005G12MPS 3100 -SHRA BKN011 BKN020CB
Issued Valid From Valid To
Nov-19 @ 19:59 UTC
(2 hours ago)
Nov-19 @ 21:00 UTC
(an hour ago)
Nov-20 @ 21:00 UTC
(in 23 hours)
Nov-19 @ 21:00 to Nov-20 @ 08:00
TAF URMM 191959Z 1921/2021 09005G12MPS 3100 BR OVC003 TX05/2011Z TN01/2002Z
Wind Visibility Clouds Conditions
90° at 10 knots
 Gusting to 23 knots
3,106 meters
  • Overcast at 300' AGL
  • Mist
Temporary Nov-19 @ 21:00 to Nov-20 @ 08:00
TEMPO 1921/2008 0300 FG OVC002
Visibility Clouds Conditions
306 meters
  • Overcast at 200' AGL
  • Fog
Becoming Nov-20 @ 08:00 to Nov-20 @ 21:00
BECMG 2008/2009 9999 NSW BKN020CB
Wind Visibility Clouds Conditions
90° at 10 knots
 Gusting to 23 knots
10,000+ meters
  • Broken at 2,000' AGL
Temporary Nov-20 @ 09:00 to Nov-20 @ 15:00
TEMPO 2009/2015 3100 -SHRA BKN011 BKN020CB
Visibility Clouds Conditions
3,106 meters
  • Broken at 1,100' AGL
  • Broken at 2,000' AGL
  • Light Rain
Temporary Nov-20 @ 15:00 to Nov-20 @ 21:00
TEMPO 2015/2021 26005G12MPS 3100 -SHRA BKN011 BKN020CB
Wind Visibility Clouds Conditions
260° at 10 knots
 Gusting to 23 knots
3,106 meters
  • Broken at 1,100' AGL
  • Broken at 2,000' AGL
  • Light Rain
TAF URMM 191959Z 1921/2021 09005G12MPS 3100 BR OVC003 TX05/2011Z TN01/2002Z TEMPO 1921/2008 0300 FG OVC002 BECMG 2008/2009 9999 NSW BKN020CB TEMPO 2009/2015 3100 -SHRA BKN011 BKN020CB TEMPO 2015/2021 26005G12MPS 3100 -SHRA BKN011 BKN020CB
Issued Nov-19 @ 19:59 UTC
(2 hours ago)
Valid From Nov-19 @ 21:00 UTC
(an hour ago)
Valid To Nov-20 @ 21:00 UTC
(in 23 hours)
Nov-19 @ 21:00 - Nov-20 @ 08:00
Wind Visibility
90° at 10 knots
 Gusting to 23 knots
3,106 meters
Clouds
  • Overcast at 300' AGL
Conditions
  • Mist
Temporary Nov-19 @ 21:00 - Nov-20 @ 08:00
Clouds
  • Overcast at 200' AGL
Conditions
  • Fog
Becoming Nov-20 @ 08:00 - Nov-20 @ 21:00
Wind Visibility
90° at 10 knots
 Gusting to 23 knots
10,000+ meters
Clouds
  • Broken at 2,000' AGL
Conditions
Temporary Nov-20 @ 09:00 - Nov-20 @ 15:00
Clouds
  • Broken at 1,100' AGL
  • Broken at 2,000' AGL
Conditions
  • Light Rain
Temporary Nov-20 @ 15:00 - Nov-20 @ 21:00
Wind Visibility
260° at 10 knots
 Gusting to 23 knots
3,106 meters
Clouds
  • Broken at 1,100' AGL
  • Broken at 2,000' AGL
Conditions
  • Light Rain